createdAt,value
2023-04-16T00:03:00.796Z,2.57
2023-04-16T00:05:31.975Z,3.07
2023-04-16T00:08:02.133Z,3.57
2023-04-16T00:10:32.030Z,2.60
2023-04-16T00:13:03.517Z,3.27
2023-04-16T00:15:35.291Z,4.23
2023-04-16T00:18:07.213Z,4.33
2023-04-16T00:20:37.861Z,3.13
2023-04-16T00:23:07.343Z,3.67
2023-04-16T00:25:36.727Z,3.70
2023-04-16T00:28:05.861Z,4.00
2023-04-16T00:30:35.249Z,3.77
2023-04-16T00:33:05.978Z,4.27
2023-04-16T00:35:34.891Z,2.93
2023-04-16T00:38:05.953Z,2.17
2023-04-16T00:40:36.115Z,4.10
2023-04-16T00:43:05.021Z,4.27
2023-04-16T00:45:36.682Z,5.60
2023-04-16T00:48:21.840Z,3.33
2023-04-16T00:50:51.475Z,3.70
2023-04-16T00:53:22.489Z,2.90
2023-04-16T00:55:52.977Z,2.90
2023-04-16T00:58:24.626Z,3.73
2023-04-16T01:00:53.533Z,4.00
2023-04-16T01:03:23.543Z,4.30
2023-04-16T01:05:53.905Z,3.80
2023-04-16T01:11:08.266Z,3.50
2023-04-16T01:13:39.869Z,4.13
2023-04-16T01:16:09.504Z,2.83
2023-04-16T01:18:39.420Z,3.10
2023-04-16T01:21:11.261Z,5.80
2023-04-16T01:23:40.917Z,5.33
2023-04-16T01:26:13.879Z,2.60
2023-04-16T01:28:44.900Z,4.67
2023-04-16T01:31:15.775Z,4.67
2023-04-16T01:33:44.956Z,4.40
2023-04-16T01:36:15.800Z,4.20
2023-04-16T01:38:46.161Z,4.23
2023-04-16T01:41:15.185Z,4.83
2023-04-16T01:43:44.771Z,4.13
2023-04-16T01:46:16.420Z,3.33
2023-04-16T01:48:47.206Z,4.30
2023-04-16T01:51:17.854Z,4.97
2023-04-16T01:53:48.337Z,6.43
2023-04-16T01:56:17.597Z,4.90
2023-04-16T01:58:47.714Z,5.10
2023-04-16T02:01:19.396Z,4.47
2023-04-16T02:03:48.762Z,4.00
2023-04-16T02:06:20.069Z,4.67
2023-04-16T02:08:48.859Z,6.57
2023-04-16T02:11:18.813Z,5.10
2023-04-16T02:13:48.353Z,4.30
2023-04-16T02:16:17.697Z,5.00
2023-04-16T02:18:46.594Z,4.60
2023-04-16T02:21:18.792Z,3.83
2023-04-16T02:23:53.602Z,4.40
2023-04-16T02:26:22.724Z,5.63
2023-04-16T02:28:52.091Z,4.20
2023-04-16T02:31:23.152Z,5.73
2023-04-16T02:33:52.083Z,4.83
2023-04-16T02:36:20.981Z,4.47
2023-04-16T02:38:51.813Z,4.63
2023-04-16T02:41:23.852Z,4.97
2023-04-16T02:43:52.896Z,5.27
2023-04-16T02:46:21.851Z,4.70
2023-04-16T02:48:50.925Z,4.23
2023-04-16T02:51:19.774Z,5.43
2023-04-16T02:53:48.767Z,4.60
2023-04-16T02:56:19.399Z,5.93
2023-04-16T02:58:48.203Z,7.17
2023-04-16T03:01:18.313Z,5.57
2023-04-16T03:03:47.293Z,7.20
2023-04-16T03:06:16.595Z,5.10
2023-04-16T03:08:45.466Z,3.57
2023-04-16T03:11:16.883Z,5.37
2023-04-16T03:13:49.766Z,4.40
2023-04-16T03:16:19.411Z,6.13
2023-04-16T03:18:48.449Z,6.77
2023-04-16T03:21:24.395Z,5.50
2023-04-16T03:23:54.193Z,6.37
2023-04-16T03:26:23.864Z,6.63
2023-04-16T03:28:56.310Z,4.37
2023-04-16T03:31:28.335Z,4.93
2023-04-16T03:33:57.629Z,5.77
2023-04-16T03:36:28.128Z,5.30
2023-04-16T03:38:56.990Z,6.40
2023-04-16T03:41:25.935Z,5.53
2023-04-16T03:43:56.686Z,6.57
2023-04-16T03:46:26.732Z,4.50
2023-04-16T03:48:56.145Z,6.37
2023-04-16T03:51:25.585Z,5.40
2023-04-16T03:53:54.628Z,7.53
2023-04-16T03:56:23.857Z,5.60
2023-04-16T03:58:52.649Z,5.63
2023-04-16T04:01:23.858Z,4.23
2023-04-16T04:03:54.249Z,5.30
2023-04-16T04:06:23.396Z,5.27
2023-04-16T04:08:52.395Z,4.20
2023-04-16T04:11:21.711Z,6.37
2023-04-16T04:13:51.084Z,6.13
2023-04-16T04:16:20.530Z,7.37
2023-04-16T04:18:53.656Z,6.73
2023-04-16T04:21:22.912Z,5.90
2023-04-16T04:23:51.907Z,5.87
2023-04-16T04:26:28.484Z,7.93
2023-04-16T04:29:02.885Z,7.27
2023-04-16T04:31:35.774Z,6.17
2023-04-16T04:34:10.068Z,8.23
2023-04-16T04:36:39.273Z,6.57
2023-04-16T04:39:08.913Z,5.23
2023-04-16T04:41:37.833Z,9.93
2023-04-16T04:44:06.900Z,8.03
2023-04-16T04:46:35.889Z,7.93
2023-04-16T04:49:07.046Z,7.30
2023-04-16T04:51:36.585Z,8.43
2023-04-16T04:54:05.824Z,8.20
2023-04-16T04:56:34.909Z,8.53
2023-04-16T04:59:06.538Z,6.23
2023-04-16T05:01:37.289Z,8.50
2023-04-16T05:04:11.157Z,8.30
2023-04-16T05:06:40.422Z,9.10
2023-04-16T05:09:12.898Z,7.20
2023-04-16T05:11:41.957Z,5.73
2023-04-16T05:14:11.304Z,7.77
2023-04-16T05:16:40.708Z,6.30
2023-04-16T05:19:11.665Z,7.93
2023-04-16T05:21:40.979Z,8.07
2023-04-16T05:24:13.003Z,7.63
2023-04-16T05:26:44.183Z,7.03
2023-04-16T05:29:13.566Z,6.90
2023-04-16T05:31:42.594Z,6.87
2023-04-16T05:34:13.277Z,6.13
2023-04-16T05:36:43.645Z,6.10
2023-04-16T05:39:16.660Z,8.83
2023-04-16T05:41:45.646Z,10.77
2023-04-16T05:44:16.006Z,6.37
2023-04-16T05:46:51.354Z,7.10
2023-04-16T05:49:23.394Z,6.27
2023-04-16T05:51:52.481Z,6.97
2023-04-16T05:54:21.849Z,6.80
2023-04-16T05:56:50.839Z,7.30
2023-04-16T05:59:21.033Z,7.80
2023-04-16T06:01:51.545Z,6.90
2023-04-16T06:07:31.099Z,8.73
2023-04-16T06:10:00.141Z,11.10
2023-04-16T06:12:31.235Z,7.40
2023-04-16T06:15:04.275Z,11.13
2023-04-16T06:17:33.182Z,8.77
2023-04-16T06:20:04.836Z,9.77
2023-04-16T06:22:35.757Z,7.40
2023-04-16T06:25:04.720Z,9.13
2023-04-16T06:27:34.073Z,8.17
2023-04-16T06:30:03.045Z,7.20
2023-04-16T06:32:32.702Z,9.47
2023-04-16T06:35:01.460Z,7.97
2023-04-16T06:37:30.591Z,9.40
2023-04-16T06:40:00.891Z,9.00
2023-04-16T06:42:30.238Z,9.33
2023-04-16T06:44:58.948Z,6.67
2023-04-16T06:47:27.982Z,7.73
2023-04-16T06:49:57.394Z,6.83
2023-04-16T06:52:26.532Z,8.20
2023-04-16T06:54:55.800Z,7.77
2023-04-16T06:57:27.253Z,11.03
2023-04-16T06:59:56.104Z,9.33
2023-04-16T07:02:26.587Z,8.80
2023-04-16T07:04:55.436Z,7.00
2023-04-16T07:07:24.228Z,7.17
2023-04-16T07:09:53.195Z,10.17
2023-04-16T07:12:22.987Z,7.80
2023-04-16T07:14:53.414Z,8.93
2023-04-16T07:17:22.564Z,8.13
2023-04-16T07:19:51.448Z,7.93
2023-04-16T07:22:20.580Z,6.90
2023-04-16T07:24:49.550Z,8.53
2023-04-16T07:27:18.611Z,11.03
2023-04-16T07:29:47.806Z,8.63
2023-04-16T07:32:19.225Z,9.20
2023-04-16T07:34:49.541Z,10.17
2023-04-16T07:37:18.609Z,9.23
2023-04-16T07:39:47.961Z,9.10
2023-04-16T07:42:17.138Z,8.00
2023-04-16T07:44:46.370Z,6.90
2023-04-16T07:47:16.287Z,8.97
2023-04-16T07:49:46.940Z,10.10
2023-04-16T07:52:16.102Z,7.20
2023-04-16T07:54:45.000Z,7.37
2023-04-16T07:57:13.874Z,7.50
2023-04-16T07:59:43.010Z,9.00
2023-04-16T08:02:13.600Z,8.57
2023-04-16T08:04:43.963Z,9.27
2023-04-16T08:07:14.591Z,8.07
2023-04-16T08:09:50.054Z,10.87
2023-04-16T08:12:22.775Z,7.20
2023-04-16T08:14:51.899Z,9.90
2023-04-16T08:17:21.864Z,7.70
2023-04-16T08:19:53.211Z,9.60
2023-04-16T08:22:23.945Z,8.57
2023-04-16T08:24:52.922Z,7.83
2023-04-16T08:27:21.789Z,8.90
2023-04-16T08:29:50.598Z,8.37
2023-04-16T08:32:19.777Z,9.00
2023-04-16T08:34:48.674Z,7.73
2023-04-16T08:37:17.558Z,7.63
2023-04-16T08:39:48.303Z,9.37
2023-04-16T08:42:27.276Z,8.60
2023-04-16T08:44:59.943Z,9.37
2023-04-16T08:47:29.870Z,8.23
2023-04-16T08:50:00.258Z,6.77
2023-04-16T08:52:31.832Z,12.00
2023-04-16T08:55:07.203Z,7.60
2023-04-16T08:57:41.100Z,7.57
2023-04-16T09:00:12.827Z,6.53
2023-04-16T09:02:42.265Z,8.87
2023-04-16T09:05:18.249Z,9.37
2023-04-16T09:07:47.705Z,8.30
2023-04-16T09:10:19.680Z,7.03
2023-04-16T09:12:49.203Z,6.50
2023-04-16T09:15:19.699Z,6.40
2023-04-16T09:17:50.282Z,8.60
2023-04-16T09:20:21.993Z,8.30
2023-04-16T09:22:52.384Z,8.90
2023-04-16T09:25:24.169Z,6.77
2023-04-16T09:27:57.261Z,9.13
2023-04-16T09:30:27.632Z,8.43
2023-04-16T09:33:16.880Z,8.20
2023-04-16T09:35:49.707Z,7.70
2023-04-16T09:38:18.931Z,8.47
2023-04-16T09:40:49.608Z,7.17
2023-04-16T09:43:19.181Z,5.53
2023-04-16T09:45:52.464Z,7.90
2023-04-16T09:48:31.609Z,7.23
2023-04-16T09:51:00.772Z,8.47
2023-04-16T09:53:35.152Z,6.83
2023-04-16T09:56:12.851Z,6.97
2023-04-16T09:58:42.439Z,7.57
2023-04-16T10:01:12.312Z,7.00
2023-04-16T10:03:42.770Z,7.43
2023-04-16T10:06:20.355Z,7.33
2023-04-16T10:08:50.376Z,8.60
2023-04-16T10:11:22.941Z,6.40
2023-04-16T10:13:53.809Z,6.80
2023-04-16T10:16:27.236Z,6.30
2023-04-16T10:18:57.048Z,6.50
2023-04-16T10:21:34.253Z,7.00
2023-04-16T10:24:04.002Z,5.43
2023-04-16T10:26:35.440Z,7.30
2023-04-16T10:29:05.470Z,7.80
2023-04-16T10:31:34.522Z,6.10
2023-04-16T10:34:18.370Z,8.80
2023-04-16T10:36:50.758Z,8.37
2023-04-16T10:39:21.457Z,7.40
2023-04-16T10:41:52.272Z,6.50
2023-04-16T10:44:21.912Z,6.00
2023-04-16T10:46:51.314Z,7.17
2023-04-16T10:49:20.962Z,5.27
2023-04-16T10:51:56.583Z,5.63
2023-04-16T10:54:27.479Z,4.63
2023-04-16T10:57:00.051Z,6.07
2023-04-16T10:59:33.680Z,7.67
2023-04-16T11:02:16.179Z,6.80
2023-04-16T11:04:48.894Z,6.30
2023-04-16T11:07:21.144Z,6.23
2023-04-16T11:10:00.051Z,6.30
2023-04-16T11:12:38.346Z,5.90
2023-04-16T11:15:10.596Z,6.27
2023-04-16T11:17:41.978Z,6.30
2023-04-16T11:20:19.676Z,6.70
2023-04-16T11:22:50.103Z,7.00
2023-04-16T11:25:24.384Z,6.43
2023-04-16T11:27:58.276Z,5.90
2023-04-16T11:30:40.161Z,6.00
2023-04-16T11:33:11.710Z,4.90
2023-04-16T11:35:43.727Z,5.57
2023-04-16T11:38:25.176Z,5.83
2023-04-16T11:40:54.678Z,5.60
2023-04-16T11:43:25.647Z,4.83
2023-04-16T11:46:40.669Z,6.10
2023-04-16T11:49:19.347Z,5.77
2023-04-16T11:51:49.475Z,5.20
2023-04-16T11:54:28.956Z,5.87
2023-04-16T11:57:05.637Z,4.30
2023-04-16T12:00:02.011Z,6.13
2023-04-16T12:02:41.044Z,5.80
2023-04-16T12:05:29.527Z,6.17
2023-04-16T12:08:02.612Z,4.70
2023-04-16T12:10:48.070Z,5.80
2023-04-16T12:13:41.151Z,6.87
2023-04-16T12:16:22.521Z,6.33
2023-04-16T12:19:05.820Z,5.63
2023-04-16T12:21:41.864Z,4.67
2023-04-16T12:24:13.440Z,6.70
2023-04-16T12:26:44.386Z,7.10
2023-04-16T12:29:21.168Z,6.50
2023-04-16T12:31:55.697Z,6.00
2023-04-16T12:34:29.088Z,5.57
2023-04-16T12:37:30.256Z,6.27
2023-04-16T12:39:59.776Z,5.83
2023-04-16T12:42:36.088Z,6.60
2023-04-16T12:45:05.821Z,6.17
2023-04-16T12:47:40.412Z,7.53
2023-04-16T12:50:18.623Z,4.73
2023-04-16T12:52:50.469Z,7.00
2023-04-16T12:55:23.736Z,7.90
2023-04-16T12:57:59.522Z,6.40
2023-04-16T13:00:32.939Z,7.20
2023-04-16T13:03:05.976Z,7.10
2023-04-16T13:05:35.507Z,6.70
2023-04-16T13:08:04.929Z,5.83
2023-04-16T13:10:43.737Z,6.37
2023-04-16T13:13:19.607Z,6.60
2023-04-16T13:15:52.031Z,5.60
2023-04-16T13:18:23.325Z,5.93
2023-04-16T13:21:47.798Z,8.30
2023-04-16T13:24:41.646Z,5.83
2023-04-16T13:27:22.911Z,5.80
2023-04-16T13:30:01.462Z,6.27
2023-04-16T13:32:32.579Z,6.77
2023-04-16T13:35:55.176Z,6.53
2023-04-16T13:38:35.276Z,5.67
2023-04-16T13:41:05.077Z,7.63
2023-04-16T13:43:37.497Z,6.30
2023-04-16T13:46:13.258Z,7.63
2023-04-16T13:48:42.410Z,6.23
2023-04-16T13:51:17.046Z,5.97
2023-04-16T13:53:54.943Z,7.50
2023-04-16T13:56:24.726Z,6.33
2023-04-16T13:58:58.459Z,7.07
2023-04-16T14:01:29.206Z,7.37
2023-04-16T14:04:00.522Z,6.80
2023-04-16T14:06:32.579Z,6.63
2023-04-16T14:09:04.233Z,6.13
2023-04-16T14:11:34.115Z,8.60
2023-04-16T14:14:06.856Z,6.97
2023-04-16T14:16:38.989Z,6.07
2023-04-16T14:19:08.710Z,4.83
2023-04-16T14:21:42.646Z,5.53
2023-04-16T14:24:14.175Z,4.60
2023-04-16T14:26:49.403Z,6.97
2023-04-16T14:29:19.419Z,5.00
2023-04-16T14:31:48.892Z,6.43
2023-04-16T14:34:18.785Z,4.87
2023-04-16T14:36:51.412Z,6.13
2023-04-16T14:39:32.746Z,5.40
2023-04-16T14:42:04.460Z,5.63
2023-04-16T14:44:36.048Z,5.43
2023-04-16T14:47:05.222Z,5.73
2023-04-16T14:49:35.157Z,7.03
2023-04-16T14:52:05.904Z,5.43
2023-04-16T14:54:41.654Z,5.07
2023-04-16T14:57:11.284Z,5.37
2023-04-16T14:59:43.501Z,6.77
2023-04-16T15:02:18.784Z,7.17
2023-04-16T15:04:49.907Z,4.80
2023-04-16T15:07:20.249Z,4.93
2023-04-16T15:09:51.265Z,6.07
2023-04-16T15:12:29.928Z,4.73
2023-04-16T15:15:00.045Z,6.87
2023-04-16T15:17:32.343Z,5.37
2023-04-16T15:20:07.277Z,5.17
2023-04-16T15:22:37.556Z,5.87
2023-04-16T15:25:13.072Z,6.10
2023-04-16T15:27:44.078Z,6.33
2023-04-16T15:33:16.218Z,6.00
2023-04-16T15:35:59.234Z,5.63
2023-04-16T15:38:45.212Z,5.33
2023-04-16T15:44:32.977Z,6.30
2023-04-16T15:47:16.556Z,6.07
2023-04-16T15:55:29.373Z,6.30
2023-04-16T16:01:07.793Z,5.47
2023-04-16T16:03:45.811Z,8.00
2023-04-16T16:06:31.724Z,6.40
2023-04-16T16:09:33.161Z,7.47
2023-04-16T16:12:02.481Z,7.17
2023-04-16T16:14:33.804Z,7.03
2023-04-16T16:17:54.507Z,6.60
2023-04-16T16:20:51.098Z,9.07
2023-04-16T16:23:28.895Z,5.80
2023-04-16T16:26:02.917Z,6.77
2023-04-16T16:28:36.426Z,6.90
2023-04-16T16:31:08.434Z,6.00
2023-04-16T16:33:51.807Z,8.10
2023-04-16T16:36:21.363Z,6.50
2023-04-16T16:39:13.377Z,8.07
2023-04-16T16:41:54.966Z,6.53
2023-04-16T16:44:26.048Z,8.80
2023-04-16T16:47:16.047Z,8.50
2023-04-16T16:50:07.399Z,7.70
2023-04-16T16:55:27.715Z,3.60
2023-04-16T16:57:59.853Z,7.77
2023-04-16T17:00:30.196Z,7.60
2023-04-16T17:03:00.455Z,5.10
2023-04-16T17:05:30.211Z,5.80
2023-04-16T17:08:06.757Z,7.20
2023-04-16T17:11:01.792Z,8.90
2023-04-16T17:22:32.598Z,10.07
2023-04-16T17:25:23.125Z,9.30
2023-04-16T17:28:10.570Z,10.67
2023-04-16T17:31:09.086Z,7.67
2023-04-16T17:33:45.864Z,9.20
2023-04-16T17:36:24.809Z,7.30
2023-04-16T17:39:23.653Z,9.23
2023-04-16T17:42:08.749Z,8.27
2023-04-16T17:44:54.650Z,7.90
2023-04-16T17:47:48.756Z,9.00
2023-04-16T17:50:27.119Z,6.93
2023-04-16T17:53:23.478Z,6.87
2023-04-16T17:56:09.565Z,7.03
2023-04-16T17:59:10.641Z,6.80
2023-04-16T18:08:19.209Z,7.97
2023-04-16T18:11:05.869Z,5.90
2023-04-16T18:13:54.945Z,7.03
2023-04-16T18:16:32.980Z,6.43
2023-04-16T18:22:03.054Z,7.30
2023-04-16T18:24:42.866Z,8.10
2023-04-16T18:27:12.695Z,7.07
2023-04-16T18:29:45.315Z,7.03
2023-04-16T18:32:33.665Z,7.50
2023-04-16T18:35:05.321Z,6.93
2023-04-16T18:37:40.591Z,7.50
2023-04-16T18:40:14.302Z,7.37
2023-04-16T18:42:53.792Z,6.33
2023-04-16T18:45:23.979Z,7.50
2023-04-16T18:48:05.422Z,7.27
2023-04-16T18:51:04.857Z,9.00
2023-04-16T18:54:15.935Z,9.93
2023-04-16T19:09:15.539Z,8.27
2023-04-16T19:15:21.629Z,8.93
2023-04-16T19:21:10.568Z,6.83
2023-04-16T19:26:58.188Z,6.53
2023-04-16T19:30:00.856Z,7.37
2023-04-16T19:32:59.685Z,6.47
2023-04-16T19:44:47.946Z,5.90
2023-04-16T19:50:40.529Z,6.80
2023-04-16T19:53:43.521Z,7.23
2023-04-16T20:18:54.553Z,6.50
2023-04-16T20:21:37.663Z,7.17
2023-04-16T20:24:54.690Z,8.33
2023-04-16T20:27:17.958Z,7.50
2023-04-16T20:29:47.346Z,6.97
2023-04-16T20:32:26.639Z,6.50
2023-04-16T20:35:13.118Z,6.67
2023-04-16T20:37:51.376Z,7.67
2023-04-16T20:43:19.304Z,7.20
2023-04-16T20:45:52.827Z,7.37
2023-04-16T20:48:43.571Z,6.83
2023-04-16T20:51:14.195Z,9.33
2023-04-16T20:53:44.956Z,7.20
2023-04-16T20:56:15.568Z,8.20
2023-04-16T20:58:45.043Z,10.57
2023-04-16T21:01:18.663Z,9.97
2023-04-16T21:03:49.538Z,7.97
2023-04-16T21:06:22.835Z,6.97
2023-04-16T21:08:52.206Z,10.20
2023-04-16T21:14:19.090Z,8.50
2023-04-16T21:16:49.630Z,9.03
2023-04-16T21:19:18.662Z,9.70
2023-04-16T21:21:49.253Z,9.50
2023-04-16T21:24:18.257Z,9.80
2023-04-16T21:26:48.449Z,7.40
2023-04-16T21:29:17.768Z,9.00
2023-04-16T21:31:47.105Z,9.97
2023-04-16T21:34:17.111Z,7.60
2023-04-16T21:36:46.485Z,7.90
2023-04-16T21:39:17.981Z,8.60
2023-04-16T21:41:47.229Z,9.43
2023-04-16T21:44:18.335Z,9.43
2023-04-16T21:46:48.485Z,8.07
2023-04-16T21:49:21.091Z,7.77
2023-04-16T21:51:50.408Z,11.00
2023-04-16T21:54:21.327Z,9.73
2023-04-16T21:56:50.661Z,9.03
2023-04-16T21:59:19.893Z,11.33
2023-04-16T22:01:49.536Z,8.70
2023-04-16T22:04:19.305Z,9.83
2023-04-16T22:06:48.873Z,7.73
2023-04-16T22:09:18.198Z,11.27
2023-04-16T22:11:52.008Z,9.93
2023-04-16T22:14:21.223Z,8.70
2023-04-16T22:16:52.552Z,10.30
2023-04-16T22:19:24.745Z,8.47
2023-04-16T22:21:55.322Z,8.57
2023-04-16T22:24:28.474Z,11.10
2023-04-16T22:27:17.088Z,11.30
2023-04-16T22:29:46.455Z,9.50
2023-04-16T22:32:16.167Z,7.20
2023-04-16T22:34:46.188Z,10.00
2023-04-16T22:37:15.246Z,9.40
2023-04-16T22:39:44.474Z,10.10
2023-04-16T22:42:15.740Z,11.37
2023-04-16T22:44:46.840Z,8.67
2023-04-16T22:47:17.193Z,8.60
2023-04-16T22:49:48.134Z,9.50
2023-04-16T22:52:20.125Z,8.90
2023-04-16T22:54:49.432Z,9.10
2023-04-16T22:57:23.158Z,11.83
2023-04-16T22:59:52.353Z,9.67
2023-04-16T23:02:22.018Z,9.63
2023-04-16T23:04:51.260Z,9.67
2023-04-16T23:07:20.574Z,12.30
2023-04-16T23:09:49.478Z,9.73
2023-04-16T23:12:20.235Z,9.63
2023-04-16T23:14:49.396Z,8.80
2023-04-16T23:17:18.776Z,10.77
2023-04-16T23:19:47.806Z,10.07
2023-04-16T23:22:16.659Z,9.30
2023-04-16T23:24:45.872Z,10.30
2023-04-16T23:27:16.329Z,10.67
2023-04-16T23:29:47.017Z,10.93
2023-04-16T23:32:17.484Z,11.77
2023-04-16T23:34:46.520Z,10.00
2023-04-16T23:37:15.341Z,9.67
2023-04-16T23:39:44.411Z,11.60
2023-04-16T23:42:14.453Z,10.93
2023-04-16T23:44:43.345Z,11.47
2023-04-16T23:47:14.023Z,12.67
2023-04-16T23:49:42.977Z,8.67
2023-04-16T23:52:21.801Z,10.00
2023-04-16T23:54:52.895Z,8.83
2023-04-16T23:57:21.951Z,12.80
2023-04-16T23:59:50.987Z,12.60
